Time;durP1;ratioP1;P1;durP2;ratioP2;P2;SDS_P1;SDS_P2;PMS_P1;PMS_P2;Temp;Humidity;BMP_temperature;BMP_pressure;BME280_temperature;BME280_humidity;BME280_pressure;Samples;Min_cycle;Max_cycle;Signal;HPM_P1;HPM_P2
2022/06/27 00:00:02;;;;;;;2.40;2.30;;;20.00;99.90;;;;;;5041978;28;21969;-82
2022/06/27 00:02:29;;;;;;;2.97;2.07;;;19.90;99.90;;;;;;5041458;28;20644;-82
2022/06/27 00:04:55;;;;;;;1.97;1.87;;;19.90;99.90;;;;;;5038637;28;20630;-82
2022/06/27 00:07:22;;;;;;;2.20;1.87;;;19.90;99.90;;;;;;5041101;28;20662;-82
2022/06/27 00:09:49;;;;;;;2.73;1.53;;;19.90;99.90;;;;;;5041545;28;20682;-82
2022/06/27 00:12:17;;;;;;;1.83;1.27;;;19.90;99.90;;;;;;5042502;28;20641;-82
2022/06/27 00:14:44;;;;;;;1.10;1.10;;;19.90;99.90;;;;;;5040770;28;21317;-82
2022/06/27 00:17:11;;;;;;;4.63;1.10;;;19.90;99.90;;;;;;5036741;28;20722;-82
2022/06/27 00:19:38;;;;;;;1.23;1.17;;;19.80;99.90;;;;;;5041975;28;21004;-82
2022/06/27 00:22:05;;;;;;;1.40;1.00;;;19.80;99.90;;;;;;5038850;28;20641;-82
2022/06/27 00:24:32;;;;;;;0.73;0.60;;;19.70;99.90;;;;;;5041902;28;20978;-82
2022/06/27 00:26:59;;;;;;;2.10;0.93;;;19.70;99.90;;;;;;5037209;28;20638;-82
2022/06/27 00:29:27;;;;;;;0.73;0.50;;;19.70;99.90;;;;;;5039002;28;20645;-83
2022/06/27 00:31:54;;;;;;;0.70;0.53;;;19.70;99.90;;;;;;5039955;28;20990;-82
2022/06/27 00:34:21;;;;;;;3.17;0.80;;;19.60;99.90;;;;;;5041713;28;20640;-82
2022/06/27 00:36:48;;;;;;;1.43;0.67;;;19.60;99.90;;;;;;5037576;28;20626;-82
2022/06/27 00:39:14;;;;;;;2.20;0.70;;;19.40;99.90;;;;;;5039489;28;21179;-82
2022/06/27 00:41:41;;;;;;;1.83;1.00;;;19.30;99.90;;;;;;5039830;28;20661;-82
2022/06/27 00:44:09;;;;;;;3.80;1.43;;;19.20;99.90;;;;;;5040503;28;20625;-82
2022/06/27 00:46:37;;;;;;;2.23;1.00;;;18.90;99.90;;;;;;5038133;28;20990;-82
2022/06/27 00:49:04;;;;;;;1.87;0.93;;;18.80;99.90;;;;;;5039563;28;20752;-81
2022/06/27 00:51:31;;;;;;;2.10;1.13;;;18.70;99.90;;;;;;5036344;28;20657;-81
2022/06/27 00:53:58;;;;;;;4.53;1.60;;;18.60;99.90;;;;;;5040610;28;20637;-81
2022/06/27 00:56:24;;;;;;;3.83;1.50;;;18.60;99.90;;;;;;5037594;28;20668;-81
2022/06/27 00:58:51;;;;;;;4.30;1.63;;;18.60;99.90;;;;;;5039907;28;20626;-82
2022/06/27 01:01:18;;;;;;;1.27;0.90;;;18.60;99.90;;;;;;5040695;28;20733;-81
2022/06/27 01:03:46;;;;;;;1.67;0.90;;;18.60;99.90;;;;;;5037379;28;20638;-81
2022/06/27 01:06:13;;;;;;;4.70;1.20;;;18.60;99.90;;;;;;5039575;28;21137;-82
2022/06/27 01:08:40;;;;;;;1.77;1.20;;;18.60;99.90;;;;;;5043951;28;20645;-82
2022/06/27 01:11:07;;;;;;;2.70;1.20;;;18.50;99.90;;;;;;5041437;28;20682;-82
2022/06/27 01:13:34;;;;;;;4.03;1.10;;;18.50;99.90;;;;;;5040363;28;20633;-82
2022/06/27 01:16:01;;;;;;;3.03;1.10;;;18.50;99.90;;;;;;5038471;28;20992;-82
2022/06/27 01:18:29;;;;;;;2.27;1.20;;;18.50;99.90;;;;;;5038344;28;21188;-82
2022/06/27 01:20:57;;;;;;;1.23;0.83;;;18.50;99.90;;;;;;5039673;28;20650;-82
2022/06/27 01:23:25;;;;;;;2.33;0.87;;;18.50;99.90;;;;;;5040465;28;20638;-82
2022/06/27 01:25:54;;;;;;;1.40;1.30;;;18.40;99.90;;;;;;5040146;28;20641;-83
2022/06/27 01:28:21;;;;;;;1.90;0.87;;;18.40;99.90;;;;;;5047674;28;20633;-83
2022/06/27 01:30:48;;;;;;;1.23;0.80;;;18.40;99.90;;;;;;5037236;28;20721;-83
2022/06/27 01:33:15;;;;;;;1.23;0.80;;;18.30;99.90;;;;;;5041569;28;20621;-82
2022/06/27 01:35:42;;;;;;;1.80;1.00;;;18.30;99.90;;;;;;5039007;28;20637;-83
2022/06/27 01:38:09;;;;;;;2.00;1.00;;;18.40;99.90;;;;;;5037346;28;20625;-83
2022/06/27 01:40:37;;;;;;;1.83;0.83;;;18.30;99.90;;;;;;5040405;28;20661;-83
2022/06/27 01:43:06;;;;;;;1.00;1.00;;;18.20;99.90;;;;;;5040748;28;20660;-83
2022/06/27 01:45:33;;;;;;;3.20;1.10;;;18.20;99.90;;;;;;5038629;28;21181;-83
2022/06/27 01:48:00;;;;;;;1.90;1.00;;;18.20;99.90;;;;;;5040259;28;20657;-83
2022/06/27 01:50:29;;;;;;;1.50;1.00;;;18.00;99.90;;;;;;5038272;28;20681;-83
2022/06/27 01:52:57;;;;;;;2.40;0.80;;;18.00;99.90;;;;;;5036621;28;20635;-83
2022/06/27 01:55:24;;;;;;;2.27;1.20;;;18.00;99.90;;;;;;5039755;28;20630;-82
2022/06/27 01:57:53;;;;;;;1.60;0.97;;;18.00;99.90;;;;;;5034826;28;20638;-82
2022/06/27 02:00:20;;;;;;;2.27;1.40;;;18.00;99.90;;;;;;5042014;28;20654;-84
2022/06/27 02:02:47;;;;;;;2.93;1.00;;;17.90;99.90;;;;;;5044788;28;20639;-83
2022/06/27 02:05:16;;;;;;;4.17;1.00;;;17.90;99.90;;;;;;5042132;28;20626;-82
2022/06/27 02:07:44;;;;;;;1.53;0.90;;;17.90;99.90;;;;;;5038457;28;20637;-83
2022/06/27 02:10:11;;;;;;;2.87;1.10;;;17.90;99.90;;;;;;5040903;28;20682;-83
2022/06/27 02:12:39;;;;;;;2.77;1.00;;;17.90;99.90;;;;;;5042285;28;20637;-83
2022/06/27 02:15:09;;;;;;;1.23;1.10;;;17.90;99.90;;;;;;5046509;28;20643;-85
2022/06/27 02:17:36;;;;;;;3.53;1.00;;;18.00;99.90;;;;;;5038708;28;20707;-84
2022/06/27 02:20:05;;;;;;;2.60;0.60;;;18.00;99.90;;;;;;5044970;28;20649;-84
2022/06/27 02:22:31;;;;;;;1.37;1.00;;;18.00;99.90;;;;;;5037995;28;20634;-84
2022/06/27 02:24:58;;;;;;;1.20;1.10;;;17.90;99.90;;;;;;5045230;28;20638;-85
2022/06/27 02:27:25;;;;;;;0.93;0.83;;;17.90;99.90;;;;;;5039542;28;20683;-83
2022/06/27 02:29:52;;;;;;;2.93;0.97;;;17.80;99.90;;;;;;5048856;28;20677;-83
2022/06/27 02:32:21;;;;;;;1.60;1.00;;;17.80;99.90;;;;;;5047988;28;20648;-83
2022/06/27 02:34:49;;;;;;;0.80;0.80;;;17.90;99.90;;;;;;5041043;28;20700;-84
2022/06/27 02:37:16;;;;;;;1.60;1.00;;;17.80;99.90;;;;;;5038770;28;20632;-84
2022/06/27 02:39:45;;;;;;;1.97;1.00;;;17.80;99.90;;;;;;5045483;28;21224;-83
2022/06/27 02:42:14;;;;;;;2.27;1.27;;;17.80;99.90;;;;;;5048362;28;20637;-83
2022/06/27 02:44:41;;;;;;;2.20;0.97;;;17.80;99.90;;;;;;5047172;28;20626;-83
2022/06/27 02:47:08;;;;;;;1.33;0.70;;;17.80;99.90;;;;;;5049729;28;20683;-83
2022/06/27 02:49:37;;;;;;;5.63;1.10;;;17.90;99.90;;;;;;5046081;28;20653;-84
2022/06/27 02:52:10;;;;;;;2.00;1.00;;;17.80;99.90;;;;;;5043296;28;20626;-83
2022/06/27 02:54:42;;;;;;;2.10;1.40;;;17.80;99.90;;;;;;5043841;28;20996;-83
2022/06/27 02:57:16;;;;;;;1.67;1.43;;;17.90;99.90;;;;;;5042502;28;20669;-83
2022/06/27 02:59:46;;;;;;;3.70;1.27;;;17.90;99.90;;;;;;5044924;28;20719;-83
2022/06/27 03:02:16;;;;;;;1.80;1.17;;;17.80;99.90;;;;;;5050037;28;20657;-84
2022/06/27 03:04:44;;;;;;;1.97;0.90;;;17.80;99.90;;;;;;5046693;28;20637;-84
2022/06/27 03:07:11;;;;;;;1.17;0.80;;;17.80;99.90;;;;;;5050959;28;20660;-84
2022/06/27 03:09:38;;;;;;;2.47;1.00;;;17.80;99.90;;;;;;5049408;28;21235;-84
2022/06/27 03:12:06;;;;;;;1.07;0.97;;;17.70;99.90;;;;;;5048982;28;20661;-84
2022/06/27 03:14:33;;;;;;;2.10;0.90;;;17.80;99.90;;;;;;5051400;28;20747;-84
2022/06/27 03:16:59;;;;;;;1.63;0.90;;;17.70;99.90;;;;;;5052287;28;20984;-83
2022/06/27 03:19:27;;;;;;;2.10;0.70;;;17.70;99.90;;;;;;5048101;28;20628;-83
2022/06/27 03:21:55;;;;;;;1.83;1.23;;;17.80;99.90;;;;;;5045378;28;20653;-83
2022/06/27 03:24:22;;;;;;;2.87;0.90;;;17.80;99.90;;;;;;5044996;28;20636;-83
2022/06/27 03:26:51;;;;;;;1.83;1.20;;;17.80;99.90;;;;;;5045592;28;21088;-83
2022/06/27 03:29:18;;;;;;;2.00;1.33;;;17.80;99.90;;;;;;5048771;28;21304;-84
2022/06/27 03:31:45;;;;;;;1.93;1.23;;;17.80;99.90;;;;;;5042021;28;20671;-83
2022/06/27 03:34:12;;;;;;;1.73;1.37;;;17.80;99.90;;;;;;5048264;28;20622;-84
2022/06/27 03:36:41;;;;;;;2.30;1.30;;;17.90;99.90;;;;;;5052324;28;20634;-82
2022/06/27 03:39:11;;;;;;;3.40;1.57;;;17.90;99.90;;;;;;5053054;28;20630;-83
2022/06/27 03:41:39;;;;;;;1.83;1.27;;;17.90;99.90;;;;;;5044817;28;20683;-84
2022/06/27 03:44:08;;;;;;;2.53;1.40;;;17.90;99.90;;;;;;5042938;28;20637;-84
2022/06/27 03:46:35;;;;;;;1.80;1.13;;;18.00;99.90;;;;;;5048165;28;20650;-83
2022/06/27 03:51:46;;;;;;;2.27;1.00;;;18.00;99.90;;;;;;5034286;28;21231;-84
2022/06/27 03:54:16;;;;;;;2.40;1.50;;;18.00;99.90;;;;;;5042955;28;20680;-83
2022/06/27 03:56:43;;;;;;;4.13;1.90;;;18.10;99.90;;;;;;5046953;28;20642;-84
2022/06/27 03:59:10;;;;;;;1.83;1.50;;;18.00;99.90;;;;;;5043147;28;20744;-84
2022/06/27 04:01:37;;;;;;;3.57;1.30;;;18.10;99.90;;;;;;5046675;28;20638;-84
2022/06/27 04:04:04;;;;;;;4.20;2.07;;;18.00;99.90;;;;;;5047660;28;20634;-84
2022/06/27 04:06:32;;;;;;;2.37;2.17;;;18.00;99.90;;;;;;5046643;28;20646;-84
2022/06/27 04:08:59;;;;;;;2.80;1.70;;;18.00;99.90;;;;;;5038966;28;20630;-83
2022/06/27 04:11:27;;;;;;;2.70;1.80;;;18.00;99.90;;;;;;5046424;28;20680;-84
2022/06/27 04:13:54;;;;;;;2.90;1.83;;;18.00;99.90;;;;;;5044205;28;20618;-84
2022/06/27 04:16:21;;;;;;;3.77;1.73;;;17.90;99.90;;;;;;5048030;28;20637;-84
2022/06/27 04:18:48;;;;;;;5.80;2.40;;;18.00;99.90;;;;;;5038467;28;20638;-84
2022/06/27 04:21:15;;;;;;;1.70;1.60;;;18.00;99.90;;;;;;5048456;28;20648;-83
2022/06/27 04:23:42;;;;;;;3.43;2.00;;;18.00;99.90;;;;;;5040961;28;21383;-84
2022/06/27 04:26:09;;;;;;;2.17;1.90;;;18.10;99.90;;;;;;5042048;28;20618;-85
2022/06/27 04:28:37;;;;;;;1.90;1.30;;;18.10;99.90;;;;;;5040749;28;21299;-84
2022/06/27 04:31:04;;;;;;;3.67;2.00;;;18.10;99.90;;;;;;5039367;28;20678;-84
2022/06/27 04:33:31;;;;;;;3.37;1.73;;;18.20;99.90;;;;;;5042787;28;20721;-84
2022/06/27 04:36:00;;;;;;;2.03;1.77;;;18.20;99.90;;;;;;5045824;28;21237;-84
2022/06/27 04:38:27;;;;;;;2.60;1.60;;;18.20;99.90;;;;;;5042993;28;20687;-85
2022/06/27 04:40:53;;;;;;;2.53;1.70;;;18.30;99.90;;;;;;5042191;28;20654;-84
2022/06/27 04:43:21;;;;;;;3.50;1.43;;;18.30;99.90;;;;;;5040293;28;20636;-85
2022/06/27 04:45:49;;;;;;;2.60;1.53;;;18.40;99.90;;;;;;5046574;28;20721;-84
2022/06/27 04:48:17;;;;;;;2.80;1.80;;;18.40;99.90;;;;;;5036774;28;20638;-85
2022/06/27 04:50:44;;;;;;;3.07;1.70;;;18.40;99.90;;;;;;5038798;28;20686;-85
2022/06/27 04:53:11;;;;;;;1.83;1.70;;;18.40;99.90;;;;;;5043718;28;20638;-84
2022/06/27 04:55:38;;;;;;;3.30;1.43;;;18.40;99.90;;;;;;5040203;28;20633;-84
2022/06/27 04:58:05;;;;;;;3.37;1.57;;;18.30;99.90;;;;;;5037360;28;20631;-84
2022/06/27 05:00:33;;;;;;;3.47;2.00;;;18.40;99.90;;;;;;5041046;28;20650;-84
2022/06/27 05:03:03;;;;;;;3.50;2.23;;;18.50;99.90;;;;;;5040785;28;20642;-84
2022/06/27 05:05:30;;;;;;;2.17;1.80;;;18.60;99.90;;;;;;5040807;28;20634;-86
2022/06/27 05:07:57;;;;;;;1.97;1.80;;;18.70;99.90;;;;;;5038725;28;20622;-84
2022/06/27 05:10:25;;;;;;;3.90;1.97;;;18.60;99.90;;;;;;5041051;28;21030;-84
2022/06/27 05:12:51;;;;;;;2.20;2.00;;;18.60;99.90;;;;;;5042576;28;20718;-83
2022/06/27 05:15:18;;;;;;;3.10;1.83;;;18.50;99.90;;;;;;5042805;28;20622;-84
2022/06/27 05:17:45;;;;;;;2.90;2.00;;;18.70;99.90;;;;;;5043798;28;20634;-84
2022/06/27 05:20:14;;;;;;;2.10;1.70;;;18.80;99.90;;;;;;5043514;28;20661;-83
2022/06/27 05:22:41;;;;;;;1.50;1.23;;;18.90;99.90;;;;;;5045213;28;20633;-84
2022/06/27 05:25:09;;;;;;;2.23;1.60;;;19.00;99.90;;;;;;5042514;28;20638;-85
2022/06/27 05:27:36;;;;;;;1.97;1.30;;;19.10;99.90;;;;;;5037641;28;20699;-84
2022/06/27 05:30:05;;;;;;;2.20;1.23;;;19.20;99.90;;;;;;5039217;28;20657;-84
2022/06/27 05:32:32;;;;;;;6.83;1.87;;;19.30;99.90;;;;;;5041265;28;21212;-83
2022/06/27 05:34:59;;;;;;;2.50;1.37;;;19.40;99.90;;;;;;5039045;28;20622;-83
2022/06/27 05:37:27;;;;;;;1.30;1.00;;;19.40;99.90;;;;;;5039017;28;20622;-83
2022/06/27 05:39:54;;;;;;;3.60;2.13;;;19.50;99.90;;;;;;5039173;28;20760;-83
2022/06/27 05:42:21;;;;;;;3.00;1.90;;;19.70;99.90;;;;;;5045696;28;20679;-83
2022/06/27 05:44:48;;;;;;;1.77;1.17;;;19.80;99.90;;;;;;5034533;28;20988;-82
2022/06/27 05:47:15;;;;;;;1.93;1.13;;;19.90;99.90;;;;;;5040318;28;20676;-82
2022/06/27 05:49:44;;;;;;;2.27;1.40;;;19.90;99.90;;;;;;5037179;28;20970;-82
2022/06/27 05:52:11;;;;;;;1.90;1.23;;;19.90;99.90;;;;;;5041984;28;20753;-82
2022/06/27 05:54:39;;;;;;;3.30;1.33;;;20.00;99.90;;;;;;5041219;28;20642;-82
2022/06/27 05:57:06;;;;;;;3.50;1.70;;;20.00;99.90;;;;;;5035456;28;20636;-82
2022/06/27 05:59:33;;;;;;;2.70;1.77;;;20.10;99.90;;;;;;5038749;28;20756;-82
2022/06/27 06:02:01;;;;;;;3.00;2.33;;;20.10;99.90;;;;;;5042541;28;20625;-82
2022/06/27 06:04:30;;;;;;;4.20;1.70;;;20.10;99.90;;;;;;5037789;28;20637;-82
2022/06/27 06:06:57;;;;;;;2.53;1.70;;;20.10;99.90;;;;;;5037700;28;20657;-82
2022/06/27 06:09:24;;;;;;;3.10;2.00;;;20.20;99.90;;;;;;5040312;28;20656;-82
2022/06/27 06:11:53;;;;;;;2.63;1.73;;;20.20;99.90;;;;;;5048056;28;20760;-82
2022/06/27 06:14:21;;;;;;;1.50;1.40;;;20.10;99.90;;;;;;5042091;28;20640;-82
2022/06/27 06:16:49;;;;;;;2.70;1.17;;;20.10;99.90;;;;;;5036956;28;20634;-82
2022/06/27 06:19:16;;;;;;;3.20;1.50;;;20.10;99.90;;;;;;5037348;28;20655;-82
2022/06/27 06:21:44;;;;;;;2.20;1.27;;;20.00;99.90;;;;;;5044374;28;20665;-82
2022/06/27 06:24:10;;;;;;;1.50;1.40;;;20.10;99.90;;;;;;5043185;28;21049;-82
2022/06/27 06:26:37;;;;;;;1.83;1.10;;;20.10;99.90;;;;;;5041976;28;21441;-82
2022/06/27 06:29:12;;;;;;;1.43;1.30;;;20.10;99.90;;;;;;5041505;28;21020;-82
2022/06/27 06:31:41;;;;;;;3.13;2.00;;;20.10;99.90;;;;;;5041314;28;20708;-82
2022/06/27 06:34:08;;;;;;;10.93;2.20;;;20.20;99.90;;;;;;5044635;28;21045;-82
2022/06/27 06:36:37;;;;;;;2.00;1.17;;;20.20;99.90;;;;;;5042913;28;20626;-82
2022/06/27 06:39:04;;;;;;;1.10;1.00;;;20.30;99.90;;;;;;5040584;28;20664;-82
2022/06/27 06:41:32;;;;;;;3.10;1.30;;;20.30;99.90;;;;;;5042869;28;20637;-82
2022/06/27 06:43:59;;;;;;;3.50;1.10;;;20.40;99.90;;;;;;5041109;28;20700;-82
2022/06/27 06:46:28;;;;;;;1.70;0.90;;;20.50;99.90;;;;;;5045304;28;20630;-82
2022/06/27 06:49:05;;;;;;;1.83;1.03;;;20.70;99.90;;;;;;5042342;28;20654;-82
2022/06/27 06:51:35;;;;;;;1.53;0.80;;;20.80;99.90;;;;;;5043593;28;20673;-82
2022/06/27 06:54:02;;;;;;;5.53;3.33;;;21.00;99.90;;;;;;5049731;28;20752;-82
2022/06/27 06:56:31;;;;;;;1.43;0.87;;;21.10;99.90;;;;;;5039526;28;20951;-81
2022/06/27 06:58:59;;;;;;;4.10;1.00;;;21.10;99.90;;;;;;5044969;28;20641;-82
2022/06/27 07:01:28;;;;;;;1.03;0.90;;;21.30;99.90;;;;;;5042744;28;20966;-82
2022/06/27 07:03:56;;;;;;;3.13;1.40;;;21.40;99.90;;;;;;5039912;28;20622;-81
2022/06/27 07:06:24;;;;;;;1.07;0.97;;;21.50;99.90;;;;;;5042853;28;20663;-82
2022/06/27 07:08:53;;;;;;;1.80;0.90;;;21.60;99.90;;;;;;5038036;28;21111;-81
2022/06/27 07:11:22;;;;;;;2.23;0.90;;;21.80;99.90;;;;;;5043971;28;20702;-82
2022/06/27 07:13:50;;;;;;;3.50;0.97;;;21.90;99.90;;;;;;5039147;28;20652;-82
2022/06/27 07:16:18;;;;;;;1.13;0.80;;;22.10;99.90;;;;;;5043916;28;20638;-81
2022/06/27 07:18:47;;;;;;;1.07;0.70;;;22.20;99.90;;;;;;5046173;28;20986;-81
2022/06/27 07:21:15;;;;;;;1.17;0.80;;;22.30;99.90;;;;;;5044853;28;21062;-81
2022/06/27 07:23:43;;;;;;;2.20;1.10;;;22.30;99.90;;;;;;5041896;28;20722;-81
2022/06/27 07:26:10;;;;;;;2.40;0.57;;;22.30;99.90;;;;;;5040454;28;20626;-81
2022/06/27 07:28:37;;;;;;;0.80;0.60;;;22.40;99.90;;;;;;5040681;28;20711;-81
2022/06/27 07:31:08;;;;;;;1.57;0.60;;;22.50;99.90;;;;;;5042162;28;20636;-81
2022/06/27 07:33:36;;;;;;;0.80;0.70;;;22.60;99.90;;;;;;5042213;28;20672;-81
2022/06/27 07:36:08;;;;;;;0.90;0.73;;;22.70;99.90;;;;;;5046322;28;20680;-81
2022/06/27 07:38:38;;;;;;;3.83;0.90;;;22.80;99.90;;;;;;5045297;28;21326;-81
2022/06/27 07:41:05;;;;;;;1.17;0.77;;;23.00;99.90;;;;;;5045981;28;20687;-81
2022/06/27 07:43:33;;;;;;;0.73;0.67;;;23.00;99.90;;;;;;5045978;28;20610;-81
2022/06/27 07:46:02;;;;;;;0.80;0.80;;;23.10;99.90;;;;;;5043367;28;20612;-81
2022/06/27 07:48:29;;;;;;;0.80;0.70;;;23.30;99.90;;;;;;5031653;28;20668;-81
2022/06/27 07:50:56;;;;;;;1.60;0.90;;;23.30;99.90;;;;;;5042591;28;20622;-82
2022/06/27 07:53:25;;;;;;;0.60;0.60;;;23.20;99.90;;;;;;5041484;28;20723;-82
2022/06/27 07:55:54;;;;;;;0.57;0.57;;;23.20;99.90;;;;;;5038494;28;21400;-82
2022/06/27 07:58:30;;;;;;;0.70;0.60;;;23.20;99.90;;;;;;5039529;28;20673;-82
2022/06/27 08:01:00;;;;;;;1.00;0.60;;;23.30;99.90;;;;;;5039756;28;20691;-82
2022/06/27 08:03:44;;;;;;;0.83;0.70;;;23.30;99.90;;;;;;5044454;28;20620;-82
2022/06/27 08:06:14;;;;;;;0.93;0.50;;;23.20;99.90;;;;;;5040435;28;21223;-82
2022/06/27 08:08:46;;;;;;;1.67;0.80;;;23.30;99.90;;;;;;5039070;28;20692;-82
2022/06/27 08:11:14;;;;;;;0.80;0.80;;;23.30;99.90;;;;;;5042367;28;21273;-82
2022/06/27 08:13:43;;;;;;;0.67;0.57;;;23.20;99.90;;;;;;5040385;28;20993;-82
2022/06/27 08:16:12;;;;;;;0.97;0.60;;;23.30;99.90;;;;;;5042009;28;20709;-82
2022/06/27 08:18:40;;;;;;;1.33;0.70;;;23.50;99.90;;;;;;5042500;28;20707;-82
2022/06/27 08:21:08;;;;;;;1.20;0.70;;;23.60;99.90;;;;;;5045449;28;20970;-82
2022/06/27 08:23:36;;;;;;;0.70;0.70;;;23.60;99.90;;;;;;5039502;28;20680;-81
2022/06/27 08:26:07;;;;;;;1.13;0.63;;;23.60;99.90;;;;;;5043173;28;20665;-82
2022/06/27 08:28:35;;;;;;;1.47;0.87;;;23.50;99.90;;;;;;5034039;28;20781;-81
2022/06/27 08:31:02;;;;;;;1.03;0.60;;;23.60;99.90;;;;;;5039911;28;20621;-82
2022/06/27 08:33:30;;;;;;;1.73;0.90;;;23.70;99.90;;;;;;5040968;28;20669;-82
2022/06/27 08:35:58;;;;;;;2.20;0.63;;;23.80;99.90;;;;;;5037587;28;20642;-81
2022/06/27 08:38:25;;;;;;;0.80;0.60;;;23.80;99.90;;;;;;5040422;28;20665;-82
2022/06/27 08:40:54;;;;;;;0.63;0.60;;;23.90;99.90;;;;;;5041299;28;20630;-82
2022/06/27 08:43:23;;;;;;;0.60;0.60;;;24.00;99.90;;;;;;5039536;28;20625;-81
2022/06/27 08:45:51;;;;;;;0.80;0.80;;;24.10;99.90;;;;;;5042040;28;20622;-82
2022/06/27 08:48:19;;;;;;;0.83;0.80;;;24.20;99.90;;;;;;5036209;28;21396;-81
2022/06/27 08:50:48;;;;;;;1.00;0.90;;;24.30;99.90;;;;;;5042966;28;20640;-81
2022/06/27 08:53:17;;;;;;;0.80;0.80;;;24.40;99.90;;;;;;5041894;28;20768;-81
2022/06/27 08:55:46;;;;;;;1.33;0.80;;;24.50;99.90;;;;;;5035484;28;20619;-81
2022/06/27 08:58:14;;;;;;;2.33;0.83;;;24.60;99.90;;;;;;5039689;28;20712;-81
2022/06/27 09:00:45;;;;;;;1.43;0.77;;;24.60;99.90;;;;;;5040084;28;20618;-82
2022/06/27 09:03:13;;;;;;;0.60;0.60;;;24.70;99.90;;;;;;5043263;28;20622;-81
2022/06/27 09:05:41;;;;;;;0.73;0.60;;;24.80;99.90;;;;;;5042205;28;21411;-81
2022/06/27 09:08:09;;;;;;;0.80;0.60;;;24.90;99.90;;;;;;5043451;28;20643;-82
2022/06/27 09:10:39;;;;;;;0.80;0.60;;;25.10;99.90;;;;;;5036783;28;21572;-82
2022/06/27 09:13:09;;;;;;;0.90;0.73;;;25.20;99.90;;;;;;5042165;28;20665;-81
2022/06/27 09:15:54;;;;;;;1.63;0.90;;;25.20;99.90;;;;;;5039533;28;21572;-81
2022/06/27 09:18:23;;;;;;;2.03;0.80;;;25.10;99.90;;;;;;5040569;28;20650;-81
2022/06/27 09:20:54;;;;;;;1.00;0.90;;;25.00;99.90;;;;;;5040077;28;20732;-81
2022/06/27 09:23:40;;;;;;;0.73;0.67;;;25.00;99.90;;;;;;5046549;28;20609;-81
2022/06/27 09:26:19;;;;;;;0.90;0.77;;;24.90;99.90;;;;;;5043102;28;20625;-81
2022/06/27 09:28:51;;;;;;;0.90;0.80;;;24.90;99.90;;;;;;5038842;28;20691;-81
2022/06/27 09:31:42;;;;;;;0.97;0.97;;;25.00;99.90;;;;;;5039328;28;20713;-81
2022/06/27 09:34:14;;;;;;;1.30;0.90;;;25.10;99.90;;;;;;5042583;28;20646;-81
2022/06/27 09:36:42;;;;;;;0.70;0.70;;;25.20;99.90;;;;;;5041568;28;20621;-80
2022/06/27 09:39:18;;;;;;;2.13;0.80;;;25.20;99.90;;;;;;5045841;28;21230;-83
2022/06/27 09:41:54;;;;;;;1.17;0.77;;;25.40;99.90;;;;;;5043167;28;21243;-83
2022/06/27 09:44:24;;;;;;;2.27;0.70;;;25.40;99.90;;;;;;5043503;28;20656;-83
2022/06/27 09:47:00;;;;;;;1.93;1.30;;;25.50;99.90;;;;;;5046855;28;20618;-82
2022/06/27 09:49:34;;;;;;;2.20;1.13;;;25.60;99.90;;;;;;5044484;28;20676;-82
2022/06/27 09:52:05;;;;;;;0.90;0.90;;;25.80;99.90;;;;;;5046096;28;21189;-82
2022/06/27 09:54:34;;;;;;;0.90;0.90;;;25.80;99.90;;;;;;5044570;28;20626;-82
2022/06/27 09:57:02;;;;;;;2.10;1.00;;;25.80;99.90;;;;;;5039452;28;20644;-82
2022/06/27 09:59:30;;;;;;;0.90;0.90;;;25.80;99.90;;;;;;5043342;28;20657;-82
2022/06/27 10:01:58;;;;;;;4.37;1.00;;;25.90;99.90;;;;;;5040180;28;20613;-81
2022/06/27 10:04:26;;;;;;;1.10;1.00;;;25.80;99.90;;;;;;5044496;28;20633;-82
2022/06/27 10:06:54;;;;;;;1.10;1.00;;;25.60;99.90;;;;;;5042728;28;20644;-82
2022/06/27 10:09:24;;;;;;;1.57;1.10;;;25.70;99.90;;;;;;5044778;28;20711;-82
2022/06/27 10:12:25;;;;;;;2.80;1.43;;;25.80;99.90;;;;;;5041156;28;21171;-81
2022/06/27 10:15:21;;;;;;;1.00;0.90;;;25.90;99.90;;;;;;5042374;28;20689;-81
2022/06/27 10:17:56;;;;;;;2.17;1.70;;;26.00;99.90;;;;;;5038674;28;20754;-82
2022/06/27 10:20:33;;;;;;;4.00;0.90;;;26.10;99.90;;;;;;5042803;28;20721;-81
2022/06/27 10:23:37;;;;;;;3.20;0.80;;;26.20;99.90;;;;;;5042686;28;20617;-81
2022/06/27 10:26:04;;;;;;;0.97;0.97;;;26.10;99.90;;;;;;5046061;28;20634;-81
2022/06/27 10:28:31;;;;;;;1.23;1.13;;;26.20;99.90;;;;;;5044109;28;20665;-82
2022/06/27 10:30:59;;;;;;;2.13;1.77;;;26.10;99.90;;;;;;5040733;28;20630;-82
2022/06/27 10:33:40;;;;;;;1.80;1.20;;;26.20;99.90;;;;;;5044488;28;21002;-82
2022/06/27 10:36:13;;;;;;;2.57;1.50;;;26.20;99.90;;;;;;5046777;28;21186;-82
2022/06/27 10:38:57;;;;;;;1.63;1.00;;;26.20;99.90;;;;;;5039216;28;20680;-82
2022/06/27 10:41:40;;;;;;;1.57;1.47;;;26.20;99.90;;;;;;5044897;28;20621;-82
2022/06/27 10:44:32;;;;;;;2.03;1.67;;;26.00;99.90;;;;;;5041640;28;20618;-82
2022/06/27 10:46:59;;;;;;;1.63;1.53;;;25.90;99.90;;;;;;5042464;28;20668;-82
2022/06/27 10:49:31;;;;;;;2.00;1.77;;;25.70;99.90;;;;;;5043059;28;20693;-82
2022/06/27 10:52:25;;;;;;;2.13;1.90;;;25.60;99.90;;;;;;5031520;28;20633;-81
2022/06/27 10:54:55;;;;;;;3.80;1.70;;;25.50;99.90;;;;;;5037565;28;20617;-81
2022/06/27 10:57:53;;;;;;;2.03;1.90;;;25.30;99.90;;;;;;5040938;28;20634;-82
2022/06/27 11:00:47;;;;;;;2.40;2.20;;;25.20;99.90;;;;;;4983130;28;20632;-82
2022/06/27 11:03:23;;;;;;;1.83;1.73;;;25.10;99.90;;;;;;5033707;28;20642;-82
2022/06/27 11:05:59;;;;;;;3.37;1.90;;;25.00;99.90;;;;;;5042278;28;20638;-81
2022/06/27 11:08:27;;;;;;;2.00;1.90;;;24.80;99.90;;;;;;5043271;28;20657;-81
2022/06/27 11:10:54;;;;;;;1.87;1.50;;;24.70;99.90;;;;;;5040885;28;20622;-81
2022/06/27 11:13:43;;;;;;;1.60;1.50;;;24.60;99.90;;;;;;5041376;28;20678;-81
2022/06/27 11:16:11;;;;;;;1.60;1.50;;;24.60;99.90;;;;;;5042172;28;20986;-81
2022/06/27 11:18:46;;;;;;;1.73;1.47;;;24.50;99.90;;;;;;5043445;28;20792;-81
2022/06/27 11:21:16;;;;;;;2.20;2.00;;;24.50;99.90;;;;;;5024200;28;20700;-81
2022/06/27 11:23:51;;;;;;;1.50;1.40;;;24.20;99.90;;;;;;5037240;28;20672;-82
2022/06/27 11:26:19;;;;;;;1.87;1.77;;;24.10;99.90;;;;;;5038816;28;21155;-81
2022/06/27 11:34:16;;;;;;;2.70;1.60;;;23.70;99.90;;;;;;5040378;28;21454;-81
2022/06/27 11:36:46;;;;;;;1.57;1.40;;;23.60;99.90;;;;;;5036125;28;20630;-81
2022/06/27 11:39:14;;;;;;;1.77;1.67;;;23.50;99.90;;;;;;5038333;28;20660;-81
2022/06/27 11:41:41;;;;;;;2.33;2.17;;;23.40;99.90;;;;;;5042148;28;21017;-81
2022/06/27 11:44:10;;;;;;;1.40;1.30;;;23.30;99.90;;;;;;5039985;28;20630;-81
2022/06/27 11:46:42;;;;;;;1.80;1.70;;;23.30;99.90;;;;;;5047070;28;21598;-81
2022/06/27 11:49:11;;;;;;;1.97;1.40;;;23.30;99.90;;;;;;5040335;28;20679;-81
2022/06/27 11:51:40;;;;;;;1.57;1.47;;;23.20;99.90;;;;;;5037006;28;21073;-81
2022/06/27 11:54:14;;;;;;;1.73;1.50;;;23.20;99.90;;;;;;5042374;28;21547;-82
2022/06/27 11:56:44;;;;;;;1.90;1.80;;;23.10;99.90;;;;;;5038797;28;20980;-81
2022/06/27 11:59:13;;;;;;;1.47;1.23;;;23.10;99.90;;;;;;5039083;28;20654;-82
2022/06/27 12:01:56;;;;;;;1.50;1.40;;;23.10;99.90;;;;;;5020560;28;20633;-82
2022/06/27 12:04:28;;;;;;;1.57;1.47;;;23.00;99.90;;;;;;5033536;28;20646;-82
2022/06/27 12:06:57;;;;;;;1.73;1.60;;;23.00;99.90;;;;;;5044902;28;20658;-83
2022/06/27 12:09:26;;;;;;;2.00;1.60;;;23.00;99.90;;;;;;5043788;28;20646;-81
2022/06/27 12:12:05;;;;;;;1.80;1.70;;;22.90;99.90;;;;;;5041400;28;20630;-80
2022/06/27 12:14:45;;;;;;;2.37;1.67;;;22.80;99.90;;;;;;5040508;28;20711;-81
2022/06/27 12:17:12;;;;;;;1.93;1.63;;;22.80;99.90;;;;;;5033011;28;20680;-81
2022/06/27 12:19:41;;;;;;;1.90;1.80;;;22.80;99.90;;;;;;5039954;28;20630;-81
2022/06/27 12:22:08;;;;;;;1.83;1.67;;;22.80;99.90;;;;;;5040562;28;20723;-81
2022/06/27 12:24:36;;;;;;;2.43;1.90;;;22.60;99.90;;;;;;5040255;28;20632;-81
2022/06/27 12:27:03;;;;;;;1.70;1.60;;;22.60;99.90;;;;;;5039149;28;20640;-81
2022/06/27 12:29:31;;;;;;;2.63;1.60;;;22.50;99.90;;;;;;5037577;28;20658;-81
2022/06/27 12:31:58;;;;;;;1.93;1.83;;;22.40;99.90;;;;;;5039083;28;20622;-81
2022/06/27 12:34:27;;;;;;;2.00;1.90;;;22.40;99.90;;;;;;5041693;28;20653;-81
2022/06/27 12:36:55;;;;;;;1.40;1.30;;;22.40;99.90;;;;;;5038171;28;20737;-81
2022/06/27 12:39:23;;;;;;;2.63;1.53;;;22.20;99.90;;;;;;5039074;28;20741;-80
2022/06/27 12:41:51;;;;;;;2.20;1.50;;;22.10;99.90;;;;;;5040922;28;20629;-80
2022/06/27 12:44:18;;;;;;;1.60;1.50;;;22.10;99.90;;;;;;5040790;28;21356;-81
2022/06/27 12:46:46;;;;;;;1.83;1.73;;;22.00;99.90;;;;;;5039200;28;21367;-81
2022/06/27 12:49:13;;;;;;;2.33;2.13;;;22.00;99.90;;;;;;5040317;28;20681;-81
2022/06/27 12:51:40;;;;;;;2.20;2.10;;;21.90;99.90;;;;;;5040056;28;21160;-81
2022/06/27 12:54:07;;;;;;;2.07;1.93;;;21.90;99.90;;;;;;5039861;28;20769;-81
2022/06/27 12:56:35;;;;;;;1.60;1.50;;;21.80;99.90;;;;;;5035554;28;20688;-81
2022/06/27 12:59:04;;;;;;;1.93;1.83;;;21.80;99.90;;;;;;5028068;28;20661;-81
2022/06/27 13:01:30;;;;;;;2.43;1.80;;;21.80;99.90;;;;;;5029693;28;20622;-81
2022/06/27 13:04:01;;;;;;;1.70;1.60;;;21.80;99.90;;;;;;5037563;28;20660;-81
2022/06/27 13:06:28;;;;;;;1.80;1.70;;;21.90;99.90;;;;;;5034267;28;20650;-81